createdAt,value
2023-01-10T00:00:54.236Z,99.993896
2023-01-10T00:02:01.924Z,99.993896
2023-01-10T00:03:11.569Z,99.993896
2023-01-10T00:04:20.217Z,99.993896
2023-01-10T00:05:28.867Z,99.993896
2023-01-10T00:06:37.532Z,99.993896
2023-01-10T00:07:47.200Z,99.993896
2023-01-10T00:08:56.878Z,99.993896
2023-01-10T00:10:06.530Z,99.993896
2023-01-10T00:11:14.213Z,99.993896
2023-01-10T00:12:23.894Z,99.993896
2023-01-10T00:13:33.562Z,99.993896
2023-01-10T00:14:42.229Z,99.975586
2023-01-10T00:15:51.035Z,99.975586
2023-01-10T00:17:00.565Z,99.975586
2023-01-10T00:18:10.270Z,99.871826
2023-01-10T00:19:18.956Z,99.768066
2023-01-10T00:20:26.609Z,99.768066
2023-01-10T00:21:36.288Z,99.768066
2023-01-10T00:22:44.972Z,99.560547
2023-01-10T00:23:54.647Z,99.456787
2023-01-10T00:25:03.311Z,99.456787
2023-01-10T00:26:10.980Z,99.456787
2023-01-10T00:27:19.632Z,99.560547
2023-01-10T00:28:31.571Z,99.560547
2023-01-10T00:29:40.757Z,99.145508
2023-01-10T00:30:50.521Z,98.895264
2023-01-10T00:31:59.159Z,98.895264
2023-01-10T00:33:08.859Z,98.687744
2023-01-10T00:34:18.579Z,98.583984
2023-01-10T00:35:28.235Z,98.480225
2023-01-10T00:36:37.950Z,98.583984
2023-01-10T00:37:46.679Z,98.583984
2023-01-10T00:38:55.329Z,98.480225
2023-01-10T00:40:05.000Z,98.480225
2023-01-10T00:41:14.665Z,98.480225
2023-01-10T00:42:23.329Z,98.583984
2023-01-10T00:43:32.002Z,98.999023
2023-01-10T00:44:41.670Z,99.102783
2023-01-10T00:45:51.358Z,99.310303
2023-01-10T00:46:58.999Z,99.414062
2023-01-10T00:48:07.675Z,99.768066
2023-01-10T00:49:17.367Z,99.975586
2023-01-10T00:50:27.056Z,99.975586
2023-01-10T00:51:35.678Z,99.993896
2023-01-10T00:52:44.378Z,99.993896
2023-01-10T00:53:53.071Z,99.993896
2023-01-10T00:55:02.745Z,99.993896
2023-01-10T00:56:10.472Z,99.993896
2023-01-10T00:57:18.141Z,99.993896
2023-01-10T00:58:27.821Z,99.993896
2023-01-10T00:59:37.542Z,99.993896
2023-01-10T01:00:47.203Z,99.993896
2023-01-10T01:01:55.968Z,99.993896
2023-01-10T01:03:05.608Z,99.993896
2023-01-10T01:04:15.289Z,99.993896
2023-01-10T01:05:22.976Z,99.993896
2023-01-10T01:06:30.670Z,99.993896
2023-01-10T01:07:40.321Z,99.993896
2023-01-10T01:08:49.009Z,99.993896
2023-01-10T01:09:57.681Z,99.993896
2023-01-10T01:11:07.380Z,99.993896
2023-01-10T01:12:17.052Z,99.993896
2023-01-10T01:13:26.758Z,99.993896
2023-01-10T01:14:37.429Z,99.993896
2023-01-10T01:15:45.222Z,99.993896
2023-01-10T01:16:54.815Z,99.993896
2023-01-10T01:18:04.517Z,99.993896
2023-01-10T01:19:13.225Z,99.993896
2023-01-10T01:20:21.908Z,99.993896
2023-01-10T01:21:30.564Z,99.993896
2023-01-10T01:22:40.325Z,99.993896
2023-01-10T01:23:49.008Z,99.993896
2023-01-10T01:24:58.684Z,99.993896
2023-01-10T01:26:08.357Z,99.993896
2023-01-10T01:27:17.037Z,99.993896
2023-01-10T01:28:26.747Z,99.993896
2023-01-10T01:29:42.823Z,99.993896
2023-01-10T01:30:46.261Z,99.993896
2023-01-10T01:31:55.866Z,99.993896
2023-01-10T01:33:03.541Z,99.993896
2023-01-10T01:34:12.397Z,99.993896
2023-01-10T01:35:22.269Z,99.993896
2023-01-10T01:36:31.937Z,99.993896
2023-01-10T01:37:40.627Z,99.993896
2023-01-10T01:38:49.329Z,99.993896
2023-01-10T01:39:57.996Z,99.993896
2023-01-10T01:41:07.697Z,99.993896
2023-01-10T01:42:16.366Z,99.993896
2023-01-10T01:43:26.051Z,99.993896
2023-01-10T01:44:35.757Z,99.993896
2023-01-10T01:45:45.458Z,99.993896
2023-01-10T01:46:54.135Z,99.993896
2023-01-10T01:48:02.825Z,99.993896
2023-01-10T01:49:12.530Z,99.993896
2023-01-10T01:50:22.210Z,99.993896
2023-01-10T01:51:29.901Z,99.993896
2023-01-10T01:52:39.704Z,99.993896
2023-01-10T01:53:47.483Z,99.993896
2023-01-10T01:54:55.193Z,99.993896
2023-01-10T01:56:04.853Z,99.993896
2023-01-10T01:57:13.652Z,99.993896
2023-01-10T01:58:22.362Z,99.993896
2023-01-10T01:59:32.049Z,99.993896
2023-01-10T02:00:41.746Z,99.993896
2023-01-10T02:01:51.491Z,99.993896
2023-01-10T02:03:02.829Z,99.993896
2023-01-10T02:04:06.766Z,99.993896
2023-01-10T02:05:16.391Z,99.993896
2023-01-10T02:06:25.121Z,99.993896
2023-01-10T02:07:33.748Z,99.993896
2023-01-10T02:08:42.468Z,99.993896
2023-01-10T02:09:51.123Z,99.993896
2023-01-10T02:11:00.812Z,99.993896
2023-01-10T02:12:09.517Z,99.993896
2023-01-10T02:13:19.195Z,99.993896
2023-01-10T02:14:28.906Z,99.993896
2023-01-10T02:15:37.624Z,99.993896
2023-01-10T02:16:46.263Z,99.993896
2023-01-10T02:17:54.948Z,99.993896
2023-01-10T02:19:03.607Z,99.993896
2023-01-10T02:20:13.295Z,99.993896
2023-01-10T02:21:22.984Z,99.993896
2023-01-10T02:22:30.677Z,99.993896
2023-01-10T02:23:40.339Z,99.993896
2023-01-10T02:24:50.040Z,99.993896
2023-01-10T02:25:59.736Z,99.993896
2023-01-10T02:27:09.458Z,99.993896
2023-01-10T02:28:20.363Z,99.993896
2023-01-10T02:29:27.781Z,99.993896
2023-01-10T02:30:36.437Z,99.993896
2023-01-10T02:31:45.239Z,99.993896
2023-01-10T02:33:04.434Z,99.993896
2023-01-10T02:34:05.605Z,99.993896
2023-01-10T02:35:14.269Z,99.993896
2023-01-10T02:36:22.952Z,99.993896
2023-01-10T02:37:32.709Z,99.993896
2023-01-10T02:38:43.401Z,99.993896
2023-01-10T02:39:51.097Z,99.993896
2023-01-10T02:41:00.789Z,99.993896
2023-01-10T02:42:10.475Z,99.993896
2023-01-10T02:43:20.181Z,99.993896
2023-01-10T02:44:28.886Z,99.993896
2023-01-10T02:45:38.545Z,99.993896
2023-01-10T02:46:47.273Z,99.993896
2023-01-10T02:47:56.888Z,99.993896
2023-01-10T02:49:05.592Z,99.993896
2023-01-10T02:50:14.298Z,99.993896
2023-01-10T02:51:23.983Z,99.993896
2023-01-10T02:52:33.696Z,99.975586
2023-01-10T02:53:43.398Z,99.975586
2023-01-10T02:54:52.240Z,99.993896
2023-01-10T02:56:00.889Z,99.993896
2023-01-10T02:57:10.593Z,99.993896
2023-01-10T02:58:19.271Z,99.993896
2023-01-10T02:59:27.999Z,99.993896
2023-01-10T03:00:37.681Z,99.993896
2023-01-10T03:01:47.391Z,99.993896
2023-01-10T03:02:57.029Z,99.993896
2023-01-10T03:04:05.722Z,99.993896
2023-01-10T03:05:15.416Z,99.871826
2023-01-10T03:06:25.111Z,99.768066
2023-01-10T03:07:34.847Z,99.871826
2023-01-10T03:08:44.548Z,99.975586
2023-01-10T03:09:54.282Z,99.993896
2023-01-10T03:11:04.025Z,99.993896
2023-01-10T03:12:13.741Z,99.993896
2023-01-10T03:13:22.454Z,99.993896
2023-01-10T03:14:31.129Z,99.871826
2023-01-10T03:15:40.808Z,99.560547
2023-01-10T03:16:49.510Z,99.609375
2023-01-10T03:17:58.222Z,99.249268
2023-01-10T03:19:07.888Z,99.041748
2023-01-10T03:20:16.556Z,99.145508
2023-01-10T03:21:25.224Z,98.937988
2023-01-10T03:22:33.909Z,98.986816
2023-01-10T03:23:43.607Z,98.986816
2023-01-10T03:24:53.295Z,98.986816
2023-01-10T03:26:01.965Z,98.779297
2023-01-10T03:27:10.652Z,98.883057
2023-01-10T03:28:20.346Z,98.883057
2023-01-10T03:29:29.154Z,98.571777
2023-01-10T03:30:37.809Z,98.419189
2023-01-10T03:31:47.470Z,98.31543
2023-01-10T03:32:57.139Z,98.522949
2023-01-10T03:34:06.830Z,98.730469
2023-01-10T03:35:15.528Z,98.730469
2023-01-10T03:36:24.242Z,98.419189
2023-01-10T03:37:33.937Z,98.419189
2023-01-10T03:38:42.632Z,98.419189
2023-01-10T03:39:51.338Z,98.21167
2023-01-10T03:41:00.038Z,98.10791
2023-01-10T03:42:09.727Z,98.00415
2023-01-10T03:43:19.413Z,98.21167
2023-01-10T03:44:27.099Z,98.00415
2023-01-10T03:45:34.777Z,97.900391
2023-01-10T03:46:44.592Z,97.796631
2023-01-10T03:47:54.193Z,98.00415
2023-01-10T03:49:03.876Z,98.00415
2023-01-10T03:50:12.553Z,98.00415
2023-01-10T03:51:21.239Z,98.00415
2023-01-10T03:52:30.930Z,97.796631
2023-01-10T03:53:39.615Z,97.796631
2023-01-10T03:54:49.307Z,97.692871
2023-01-10T03:55:57.993Z,97.692871
2023-01-10T03:57:05.688Z,97.796631
2023-01-10T03:58:15.423Z,97.796631
2023-01-10T03:59:25.123Z,97.692871
2023-01-10T04:00:33.829Z,97.589111
2023-01-10T04:01:42.728Z,97.692871
2023-01-10T04:02:51.309Z,97.589111
2023-01-10T04:04:01.025Z,97.589111
2023-01-10T04:05:09.655Z,97.796631
2023-01-10T04:06:19.346Z,97.692871
2023-01-10T04:07:29.038Z,98.00415
2023-01-10T04:08:38.750Z,98.10791
2023-01-10T04:09:48.468Z,98.31543
2023-01-10T04:10:57.240Z,98.522949
2023-01-10T04:12:05.937Z,98.522949
2023-01-10T04:13:15.633Z,98.730469
2023-01-10T04:14:24.321Z,99.041748
2023-01-10T04:15:33.028Z,99.145508
2023-01-10T04:16:42.726Z,98.937988
2023-01-10T04:17:51.394Z,98.730469
2023-01-10T04:19:00.134Z,98.730469
2023-01-10T04:20:09.809Z,98.626709
2023-01-10T04:21:18.514Z,98.626709
2023-01-10T04:22:28.248Z,98.522949
2023-01-10T04:23:36.925Z,98.626709
2023-01-10T04:24:45.649Z,98.626709
2023-01-10T04:25:55.374Z,98.626709
2023-01-10T04:27:04.090Z,98.419189
2023-01-10T04:28:12.784Z,98.31543
2023-01-10T04:29:21.466Z,98.00415
2023-01-10T04:30:31.169Z,97.900391
2023-01-10T04:31:40.947Z,97.753906
2023-01-10T04:32:49.562Z,97.650146
2023-01-10T04:33:58.218Z,97.753906
2023-01-10T04:35:07.932Z,97.753906
2023-01-10T04:36:16.596Z,97.546387
2023-01-10T04:37:26.262Z,97.650146
2023-01-10T04:38:34.949Z,97.753906
2023-01-10T04:39:43.637Z,97.650146
2023-01-10T04:40:53.348Z,97.753906
2023-01-10T04:42:01.033Z,97.753906
2023-01-10T04:43:09.724Z,97.961426
2023-01-10T04:44:20.426Z,98.168945
2023-01-10T04:45:30.125Z,98.272705
2023-01-10T04:46:39.770Z,98.522949
2023-01-10T04:47:48.454Z,98.626709
2023-01-10T04:48:58.106Z,98.834229
2023-01-10T04:50:07.809Z,98.626709
2023-01-10T04:51:16.512Z,98.730469
2023-01-10T04:52:25.157Z,98.834229
2023-01-10T04:53:34.855Z,98.834229
2023-01-10T04:54:44.530Z,98.730469
2023-01-10T04:55:53.220Z,99.041748
2023-01-10T04:57:01.890Z,99.456787
2023-01-10T04:58:10.561Z,99.768066
2023-01-10T04:59:20.260Z,99.993896
2023-01-10T05:00:28.935Z,99.993896
2023-01-10T05:01:37.646Z,99.993896
2023-01-10T05:02:47.339Z,99.993896
2023-01-10T05:03:57.942Z,99.993896
2023-01-10T05:05:06.618Z,99.993896
2023-01-10T05:06:15.292Z,99.993896
2023-01-10T05:07:24.998Z,99.993896
2023-01-10T05:08:33.667Z,99.993896
2023-01-10T05:09:42.325Z,99.993896
2023-01-10T05:10:50.004Z,99.993896
2023-01-10T05:11:59.735Z,99.993896
2023-01-10T05:13:08.500Z,99.993896
2023-01-10T05:14:18.206Z,99.993896
2023-01-10T05:15:27.894Z,99.993896
2023-01-10T05:16:37.626Z,99.993896
2023-01-10T05:17:47.288Z,99.993896
2023-01-10T05:18:55.980Z,99.993896
2023-01-10T05:20:03.651Z,99.993896
2023-01-10T05:21:13.350Z,99.993896
2023-01-10T05:22:23.027Z,99.993896
2023-01-10T05:23:31.718Z,99.993896
2023-01-10T05:24:41.377Z,99.993896
2023-01-10T05:25:51.043Z,99.993896
2023-01-10T05:27:00.724Z,99.993896
2023-01-10T05:28:09.410Z,99.993896
2023-01-10T05:29:19.095Z,99.993896
2023-01-10T05:30:28.796Z,99.993896
2023-01-10T05:31:38.503Z,99.993896
2023-01-10T05:32:47.133Z,99.993896
2023-01-10T05:33:55.817Z,99.993896
2023-01-10T05:35:05.506Z,99.993896
2023-01-10T05:36:14.196Z,99.993896
2023-01-10T05:37:21.925Z,99.993896
2023-01-10T05:38:30.624Z,99.993896
2023-01-10T05:39:40.321Z,99.993896
2023-01-10T05:40:48.972Z,99.993896
2023-01-10T05:41:57.727Z,99.993896
2023-01-10T05:43:06.438Z,99.993896
2023-01-10T05:44:16.099Z,99.993896
2023-01-10T05:45:25.829Z,99.993896
2023-01-10T05:46:34.533Z,99.993896
2023-01-10T05:47:42.259Z,99.993896
2023-01-10T05:48:51.937Z,99.993896
2023-01-10T05:50:00.631Z,99.993896
2023-01-10T05:51:10.315Z,99.993896
2023-01-10T05:52:18.982Z,99.993896
2023-01-10T05:53:27.687Z,99.993896
2023-01-10T05:54:37.330Z,99.993896
2023-01-10T05:55:46.056Z,99.993896
2023-01-10T05:56:55.771Z,99.993896
2023-01-10T05:58:03.452Z,99.993896
2023-01-10T05:59:27.191Z,99.993896
2023-01-10T06:00:24.928Z,99.993896
2023-01-10T06:01:31.503Z,99.993896
2023-01-10T06:02:41.219Z,99.993896
2023-01-10T06:03:49.858Z,99.993896
2023-01-10T06:04:59.563Z,99.993896
2023-01-10T06:06:09.277Z,99.993896
2023-01-10T06:07:17.987Z,99.993896
2023-01-10T06:08:26.655Z,99.993896
2023-01-10T06:09:36.337Z,99.993896
2023-01-10T06:10:45.010Z,99.993896
2023-01-10T06:11:53.715Z,99.993896
2023-01-10T06:13:03.391Z,99.993896
2023-01-10T06:14:12.055Z,99.993896
2023-01-10T06:15:21.739Z,99.993896
2023-01-10T06:16:29.502Z,99.993896
2023-01-10T06:17:39.213Z,99.993896
2023-01-10T06:18:48.901Z,99.993896
2023-01-10T06:19:57.570Z,99.993896
2023-01-10T06:21:06.294Z,99.993896
2023-01-10T06:22:14.976Z,99.993896
2023-01-10T06:23:24.657Z,99.993896
2023-01-10T06:24:34.368Z,99.993896
2023-01-10T06:25:43.067Z,99.993896
2023-01-10T06:26:50.736Z,99.993896
2023-01-10T06:28:00.499Z,99.993896
2023-01-10T06:29:09.191Z,99.993896
2023-01-10T06:30:18.915Z,99.993896
2023-01-10T06:31:28.638Z,99.993896
2023-01-10T06:32:37.343Z,99.993896
2023-01-10T06:33:47.066Z,99.993896
2023-01-10T06:34:55.768Z,99.993896
2023-01-10T06:36:04.440Z,99.993896
2023-01-10T06:37:15.131Z,99.993896
2023-01-10T06:38:24.809Z,99.993896
2023-01-10T06:39:34.553Z,99.993896
2023-01-10T06:40:43.254Z,99.993896
2023-01-10T06:41:52.952Z,99.993896
2023-01-10T06:43:02.624Z,99.993896
2023-01-10T06:44:11.352Z,99.993896
2023-01-10T06:45:20.027Z,99.993896
2023-01-10T06:46:29.717Z,99.993896
2023-01-10T06:47:38.409Z,99.993896
2023-01-10T06:48:47.139Z,99.993896
2023-01-10T06:49:56.851Z,99.993896
2023-01-10T06:51:05.590Z,99.993896
2023-01-10T06:52:15.316Z,99.993896
2023-01-10T06:53:23.998Z,99.993896
2023-01-10T06:54:33.706Z,99.993896
2023-01-10T06:55:43.378Z,99.993896
2023-01-10T06:56:53.064Z,99.993896
2023-01-10T06:58:01.762Z,99.993896
2023-01-10T06:59:10.432Z,99.993896
2023-01-10T07:00:19.159Z,99.993896
2023-01-10T07:01:28.895Z,99.993896
2023-01-10T07:02:37.537Z,99.993896
2023-01-10T07:03:45.281Z,99.993896
2023-01-10T07:04:54.964Z,99.993896
2023-01-10T07:06:04.649Z,99.993896
2023-01-10T07:07:13.318Z,99.993896
2023-01-10T07:08:23.039Z,99.993896
2023-01-10T07:09:32.724Z,99.993896
2023-01-10T07:10:42.423Z,99.993896
2023-01-10T07:11:51.105Z,99.993896
2023-01-10T07:12:59.791Z,99.993896
2023-01-10T07:14:09.491Z,99.993896
2023-01-10T07:15:18.179Z,99.993896
2023-01-10T07:16:26.973Z,99.993896
2023-01-10T07:17:36.567Z,99.993896
2023-01-10T07:18:45.256Z,99.993896
2023-01-10T07:19:56.030Z,99.993896
2023-01-10T07:21:05.685Z,99.993896
2023-01-10T07:22:13.366Z,99.993896
2023-01-10T07:23:23.057Z,99.993896
2023-01-10T07:24:31.765Z,99.993896
2023-01-10T07:25:40.460Z,99.993896
2023-01-10T07:26:49.153Z,99.993896
2023-01-10T07:27:58.880Z,99.993896
2023-01-10T07:29:09.342Z,99.993896
2023-01-10T07:30:18.031Z,99.993896
2023-01-10T07:31:26.757Z,99.993896
2023-01-10T07:32:36.449Z,99.993896
2023-01-10T07:33:47.122Z,99.993896
2023-01-10T07:34:56.772Z,99.993896
2023-01-10T07:36:06.455Z,99.993896
2023-01-10T07:37:15.137Z,99.993896
2023-01-10T07:38:24.825Z,99.993896
2023-01-10T07:39:34.507Z,99.993896
2023-01-10T07:40:44.194Z,99.993896
2023-01-10T07:41:53.883Z,99.993896
2023-01-10T07:43:02.614Z,99.993896
2023-01-10T07:44:11.279Z,99.993896
2023-01-10T07:45:19.959Z,99.993896
2023-01-10T07:46:28.675Z,99.993896
2023-01-10T07:47:38.334Z,99.993896
2023-01-10T07:48:47.088Z,99.993896
2023-01-10T07:49:56.769Z,99.993896
2023-01-10T07:51:04.467Z,99.993896
2023-01-10T07:52:13.153Z,99.993896
2023-01-10T07:53:22.861Z,99.993896
2023-01-10T07:54:31.581Z,99.993896
2023-01-10T07:55:40.303Z,99.993896
2023-01-10T07:56:50.034Z,99.993896
2023-01-10T07:57:59.732Z,99.993896
2023-01-10T07:59:09.436Z,99.993896
2023-01-10T08:00:18.768Z,99.993896
2023-01-10T08:01:26.882Z,99.993896
2023-01-10T08:02:36.634Z,99.993896
2023-01-10T08:03:45.260Z,99.993896
2023-01-10T08:04:53.877Z,99.993896
2023-01-10T08:06:03.660Z,99.993896
2023-01-10T08:07:12.371Z,99.993896
2023-01-10T08:08:22.074Z,99.993896
2023-01-10T08:09:29.757Z,99.993896
2023-01-10T08:10:38.439Z,99.993896
2023-01-10T08:11:48.207Z,99.993896
2023-01-10T08:12:59.568Z,99.993896
2023-01-10T08:14:07.564Z,99.993896
2023-01-10T08:15:16.219Z,99.993896
2023-01-10T08:16:24.959Z,99.993896
2023-01-10T08:17:34.716Z,99.993896
2023-01-10T08:18:43.510Z,99.993896
2023-01-10T08:19:52.136Z,99.993896
2023-01-10T08:21:01.845Z,99.993896
2023-01-10T08:22:11.555Z,99.993896
2023-01-10T08:23:20.271Z,99.993896
2023-01-10T08:24:29.992Z,99.993896
2023-01-10T08:25:39.631Z,99.993896
2023-01-10T08:26:48.376Z,99.993896
2023-01-10T08:27:57.068Z,99.993896
2023-01-10T08:29:05.774Z,99.993896
2023-01-10T08:30:15.516Z,99.993896
2023-01-10T08:31:24.254Z,99.993896
2023-01-10T08:32:32.925Z,99.993896
2023-01-10T08:33:42.613Z,99.993896
2023-01-10T08:34:51.324Z,99.993896
2023-01-10T08:36:01.048Z,99.993896
2023-01-10T08:37:10.696Z,99.993896
2023-01-10T08:38:20.400Z,99.993896
2023-01-10T08:39:30.075Z,99.993896
2023-01-10T08:40:38.751Z,99.993896
2023-01-10T08:41:47.431Z,99.993896
2023-01-10T08:42:57.122Z,99.993896
2023-01-10T08:44:06.780Z,99.993896
2023-01-10T08:45:16.441Z,99.993896
2023-01-10T08:46:25.133Z,99.993896
2023-01-10T08:47:36.182Z,99.993896
2023-01-10T08:48:45.908Z,99.993896
2023-01-10T08:49:55.583Z,99.993896
2023-01-10T08:51:05.269Z,99.993896
2023-01-10T08:52:14.955Z,99.993896
2023-01-10T08:53:23.660Z,99.993896
2023-01-10T08:54:33.363Z,99.993896
2023-01-10T08:55:42.023Z,99.993896
2023-01-10T08:56:50.687Z,99.993896
2023-01-10T08:58:00.416Z,99.993896
2023-01-10T08:59:10.115Z,99.993896
2023-01-10T09:00:18.764Z,99.993896
2023-01-10T09:01:26.613Z,99.993896
2023-01-10T09:02:35.221Z,99.993896
2023-01-10T09:03:44.847Z,99.993896
2023-01-10T09:04:54.557Z,99.993896
2023-01-10T09:06:02.278Z,99.993896
2023-01-10T09:07:11.962Z,99.993896
2023-01-10T09:08:20.601Z,99.993896
2023-01-10T09:09:29.353Z,99.993896
2023-01-10T09:10:38.035Z,99.926758
2023-01-10T09:11:47.722Z,99.719238
2023-01-10T09:12:57.496Z,99.719238
2023-01-10T09:14:07.129Z,99.615479
2023-01-10T09:15:15.822Z,99.517822
2023-01-10T09:16:25.560Z,99.414062
2023-01-10T09:17:36.190Z,99.615479
2023-01-10T09:18:44.860Z,99.615479
2023-01-10T09:19:53.545Z,99.615479
2023-01-10T09:21:02.244Z,99.822998
2023-01-10T09:22:11.920Z,99.517822
2023-01-10T09:23:20.607Z,99.615479
2023-01-10T09:24:28.222Z,99.768066
2023-01-10T09:25:37.890Z,99.664307
2023-01-10T09:26:47.569Z,99.560547
2023-01-10T09:27:56.234Z,99.871826
2023-01-10T09:29:05.914Z,99.993896
2023-01-10T09:30:15.571Z,99.993896
2023-01-10T09:31:25.375Z,99.993896
2023-01-10T09:32:33.976Z,99.993896
2023-01-10T09:33:47.010Z,99.993896
2023-01-10T09:34:53.416Z,99.993896
2023-01-10T09:36:03.093Z,99.993896
2023-01-10T09:37:12.820Z,99.993896
2023-01-10T09:38:22.543Z,99.993896
2023-01-10T09:39:31.180Z,99.993896
2023-01-10T09:40:40.849Z,99.993896
2023-01-10T09:41:48.508Z,99.993896
2023-01-10T09:42:58.174Z,99.993896
2023-01-10T09:44:07.959Z,99.993896
2023-01-10T09:45:16.641Z,99.993896
2023-01-10T09:46:26.496Z,99.993896
2023-01-10T09:47:35.024Z,99.993896
2023-01-10T09:48:43.737Z,99.993896
2023-01-10T09:49:52.463Z,99.993896
2023-01-10T09:51:02.136Z,99.993896
2023-01-10T09:52:11.880Z,99.993896
2023-01-10T09:53:20.538Z,99.993896
2023-01-10T09:54:30.376Z,99.993896
2023-01-10T09:55:40.041Z,99.993896
2023-01-10T09:56:48.707Z,99.993896
2023-01-10T09:57:57.359Z,99.993896
2023-01-10T09:59:06.019Z,99.993896
2023-01-10T10:00:14.702Z,99.993896
2023-01-10T10:01:24.413Z,99.993896
2023-01-10T10:02:32.048Z,99.993896
2023-01-10T10:03:41.910Z,99.993896
2023-01-10T10:04:51.449Z,99.993896
2023-01-10T10:06:11.466Z,99.993896
2023-01-10T10:07:10.826Z,99.993896
2023-01-10T10:08:20.487Z,99.993896
2023-01-10T10:09:30.199Z,99.993896
2023-01-10T10:10:39.944Z,99.993896
2023-01-10T10:11:48.541Z,99.993896
2023-01-10T10:12:57.213Z,99.993896
2023-01-10T10:14:06.910Z,99.993896
2023-01-10T10:15:15.589Z,99.993896
2023-01-10T10:16:24.276Z,99.993896
2023-01-10T10:17:32.931Z,99.993896
2023-01-10T10:18:41.605Z,99.481201
2023-01-10T10:19:51.289Z,99.481201
2023-01-10T10:20:58.981Z,99.743652
2023-01-10T10:22:07.659Z,99.639893
2023-01-10T10:23:17.324Z,98.87085
2023-01-10T10:24:26.022Z,98.931885
2023-01-10T10:25:34.680Z,98.309326
2023-01-10T10:26:43.409Z,98.059082
2023-01-10T10:27:52.924Z,96.923828
2023-01-10T10:29:02.626Z,95.166016
2023-01-10T10:30:11.278Z,93.969727
2023-01-10T10:31:19.013Z,92.523193
2023-01-10T10:32:28.661Z,92.523193
2023-01-10T10:33:38.320Z,90.039062
2023-01-10T10:34:48.019Z,90.661621
2023-01-10T10:35:56.692Z,89.416504
2023-01-10T10:37:05.336Z,89.215088
2023-01-10T10:38:15.002Z,88.48877
2023-01-10T10:39:23.705Z,87.866211
2023-01-10T10:40:33.355Z,87.249756
2023-01-10T10:41:43.110Z,88.342285
2023-01-10T10:42:51.788Z,88.201904
2023-01-10T10:44:00.500Z,86.712646
2023-01-10T10:45:10.162Z,85.888672
2023-01-10T10:46:19.846Z,85.577393
2023-01-10T10:47:29.527Z,87.188721
2023-01-10T10:48:37.179Z,86.901855
2023-01-10T10:49:46.846Z,83.190918
2023-01-10T10:50:56.531Z,81.542969
2023-01-10T10:52:05.203Z,81.890869
2023-01-10T10:53:14.906Z,82.818604
2023-01-10T10:54:23.620Z,82.507324
2023-01-10T10:55:33.267Z,83.233643
2023-01-10T10:56:42.947Z,82.958984
2023-01-10T10:57:59.648Z,83.166504
2023-01-10T10:59:01.302Z,83.929443
2023-01-10T11:00:11.014Z,83.514404
2023-01-10T11:01:20.788Z,83.929443
2023-01-10T11:02:30.363Z,83.410645
2023-01-10T11:03:40.036Z,84.033203
2023-01-10T11:04:49.729Z,83.618164
2023-01-10T11:05:59.441Z,82.891846
2023-01-10T11:07:07.101Z,82.48291
2023-01-10T11:08:15.825Z,81.860352
2023-01-10T11:09:25.754Z,81.695557
2023-01-10T11:10:35.710Z,81.903076
2023-01-10T11:11:45.629Z,82.104492
2023-01-10T11:12:55.525Z,81.555176
2023-01-10T11:14:04.500Z,81.072998
2023-01-10T11:15:14.394Z,79.833984
2023-01-10T11:16:24.438Z,80.352783
2023-01-10T11:17:33.189Z,81.488037
2023-01-10T11:18:42.876Z,81.176758
2023-01-10T11:19:51.599Z,82.415771
2023-01-10T11:21:00.288Z,79.35791
2023-01-10T11:22:09.150Z,79.766846
2023-01-10T11:23:17.840Z,78.979492
2023-01-10T11:24:27.531Z,79.803467
2023-01-10T11:25:37.223Z,79.907227
2023-01-10T11:26:44.919Z,80.633545
2023-01-10T11:27:54.649Z,79.907227
2023-01-10T11:29:04.329Z,80.218506
2023-01-10T11:30:13.202Z,81.048584
2023-01-10T11:31:22.723Z,79.803467
2023-01-10T11:32:32.367Z,79.559326
2023-01-10T11:33:42.081Z,79.083252
2023-01-10T11:34:50.768Z,78.668213
2023-01-10T11:35:59.495Z,78.045654
2023-01-10T11:37:09.149Z,77.22168
2023-01-10T11:38:18.857Z,78.045654
2023-01-10T11:39:28.543Z,77.11792
2023-01-10T11:40:37.252Z,77.01416
2023-01-10T11:41:46.946Z,76.9104
2023-01-10T11:42:59.084Z,77.11792
2023-01-10T11:44:05.275Z,77.532959
2023-01-10T11:45:14.983Z,77.941895
2023-01-10T11:46:23.642Z,77.838135
2023-01-10T11:47:37.882Z,76.495361
2023-01-10T11:49:04.152Z,76.9104
2023-01-10T11:49:54.627Z,77.636719
2023-01-10T11:51:03.332Z,78.460693
2023-01-10T11:52:13.004Z,78.356934
2023-01-10T11:53:20.696Z,79.016113
2023-01-10T11:54:30.381Z,79.528809
2023-01-10T11:55:38.058Z,80.151367
2023-01-10T11:56:47.744Z,80.877686
2023-01-10T11:57:56.453Z,81.70166
2023-01-10T11:59:06.144Z,81.738281
2023-01-10T12:00:14.867Z,82.220459
2023-01-10T12:01:24.699Z,82.012939
2023-01-10T12:02:33.293Z,81.90918
2023-01-10T12:03:42.935Z,81.390381
2023-01-10T12:04:51.672Z,81.433105
2023-01-10T12:06:00.312Z,81.494141
2023-01-10T12:07:09.946Z,81.5979
2023-01-10T12:08:19.664Z,80.358887
2023-01-10T12:09:29.362Z,80.670166
2023-01-10T12:10:39.023Z,80.670166
2023-01-10T12:11:47.717Z,80.737305
2023-01-10T12:12:57.407Z,80.218506
2023-01-10T12:14:07.082Z,80.114746
2023-01-10T12:15:15.724Z,80.010986
2023-01-10T12:16:25.533Z,80.322266
2023-01-10T12:17:35.183Z,80.218506
2023-01-10T12:18:43.847Z,80.633545
2023-01-10T12:19:53.539Z,80.010986
2023-01-10T12:21:03.250Z,80.181885
2023-01-10T12:22:12.906Z,80.389404
2023-01-10T12:23:21.621Z,79.522705
2023-01-10T12:24:31.413Z,79.833984
2023-01-10T12:25:41.108Z,79.522705
2023-01-10T12:26:49.775Z,79.01001
2023-01-10T12:27:58.498Z,78.90625
2023-01-10T12:29:08.167Z,78.491211
2023-01-10T12:30:17.848Z,78.90625
2023-01-10T12:31:27.581Z,79.01001
2023-01-10T12:32:35.258Z,79.11377
2023-01-10T12:33:44.962Z,79.730225
2023-01-10T12:34:54.634Z,79.589844
2023-01-10T12:36:04.290Z,78.143311
2023-01-10T12:37:12.992Z,77.838135
2023-01-10T12:38:22.658Z,78.662109
2023-01-10T12:39:32.346Z,78.387451
2023-01-10T12:40:42.045Z,79.01001
2023-01-10T12:41:49.686Z,78.69873
2023-01-10T12:42:58.387Z,78.765869
2023-01-10T12:44:08.109Z,76.977539
2023-01-10T12:45:17.787Z,76.116943
2023-01-10T12:46:53.165Z,74.841309
2023-01-10T12:47:38.205Z,74.737549
2023-01-10T12:48:47.856Z,75.598145
2023-01-10T12:49:57.510Z,75.286865
2023-01-10T12:51:05.231Z,75.598145
2023-01-10T12:52:12.937Z,76.013184
2023-01-10T12:53:22.624Z,75.219727
2023-01-10T12:54:32.294Z,75.427246
2023-01-10T12:55:41.985Z,75.219727
2023-01-10T12:56:51.649Z,75.152588
2023-01-10T12:58:00.353Z,75.976562
2023-01-10T12:59:10.005Z,75.048828
2023-01-10T13:00:19.718Z,75.567627
2023-01-10T13:01:27.537Z,75.872803
2023-01-10T13:02:37.182Z,76.080322
2023-01-10T13:03:46.778Z,76.391602
2023-01-10T13:04:56.470Z,75.976562
2023-01-10T13:06:06.141Z,75.872803
2023-01-10T13:07:14.871Z,75.567627
2023-01-10T13:08:24.576Z,75.769043
2023-01-10T13:09:33.255Z,75.463867
2023-01-10T13:10:40.915Z,76.184082